Norwegian Star — C6FR3 — position and weather

sailwx.info

Track history (hours):
 
Tides and Currents Weather Stations Pressure Air Temp Water Temp Dewpoint Dewpoint Depression Visibility Wind Speed Wind Dir Waves Ship Positions

Norwegian Star

Operator: Norwegian Cruise Line

Last reported at 2017-Aug-20 13:28 UTC. Time now 2017-Aug-20 13:40 UTC.
Position N 45°26' E 012°19'.

Type: Ship. MMSI: 311082000.

Date/timePositionNaut miles runAvg speedWind from/ knotsBaromVisibWave heightAir tempDewpointWater temp
2017-Aug-20 13:28N 45°26' E 012°19'0 0.0
2017-Aug-20 12:58N 45°26' E 012°19'0 0.0
2017-Aug-20 12:28N 45°26' E 012°19'0 0.0
2017-Aug-20 11:58N 45°26' E 012°19'0 0.0
2017-Aug-20 11:28N 45°26' E 012°19'0 0.0
2017-Aug-20 10:58N 45°26' E 012°19'0 0.0
2017-Aug-20 10:28N 45°26' E 012°19'0 0.0
2017-Aug-20 09:58N 45°26' E 012°19'0 0.0
2017-Aug-20 09:28N 45°26' E 012°19'0 0.0
2017-Aug-20 08:58N 45°26' E 012°19'0 0.0
2017-Aug-20 08:28N 45°26' E 012°19'0 0.0
2017-Aug-20 07:58N 45°26' E 012°19'0 0.0
2017-Aug-20 07:28N 45°26' E 012°19'0 0.0
2017-Aug-20 06:58N 45°26' E 012°19'0 0.0
2017-Aug-20 06:28N 45°26' E 012°19'0 0.0
2017-Aug-20 05:58N 45°26' E 012°19'0 0.0
2017-Aug-20 05:28N 45°26' E 012°19'0 0.0
2017-Aug-20 05:00N 45°26' E 012°19'0 0.9
2017-Aug-20 04:31N 45°26' E 012°18'3 5.1
2017-Aug-20 04:00N 45°25' E 012°22'3 6.8
2017-Aug-20 03:30N 45°25' E 012°27'816.5
2017-Aug-20 03:01N 45°21' E 012°37'1020.4
2017-Aug-20 02:31N 45°15' E 012°49'1020.7
2017-Aug-20 02:01N 45°08' E 012°59'1020.5
2017-Aug-20 01:30N 45°01' E 013°11'1019.9
2017-Aug-20 01:00N 44°55' E 013°22'1019.3
2017-Aug-20 00:30N 44°47' E 013°29'3619.4
2017-Aug-19 22:40N 44°17' E 013°57'320.2
2017-Aug-19 22:30N 44°14' E 013°59'1020.0
2017-Aug-19 22:00N 44°06' E 014°07'1019.9
2017-Aug-19 21:30N 43°59' E 014°16'1619.9
2017-Aug-19 20:44N 43°47' E 014°30'420.0
2017-Aug-19 20:31N 43°44' E 014°34'1020.2
2017-Aug-19 20:00N 43°36' E 014°43'3320.1
2017-Aug-19 18:21N 43°11' E 015°13'198 9.5
2017-Aug-18 21:29N 41°04' E 018°38'3815.8
2017-Aug-18 19:04N 40°27' E 018°52'316.1
2017-Aug-18 18:54N 40°25' E 018°53'615.8
2017-Aug-18 18:30N 40°19' E 018°55'26315.9
2017-Aug-18 02:00N 36°36' E 021°54'9813.2 340 / 71011.0 5.4 26.0 27.0
2017-Aug-17 18:35N 36°45' E 023°55'2717.2
2017-Aug-17 17:00N 37°00' E 024°24'2416.8 350 / 301009.0 24.0
2017-Aug-17 15:35N 37°14' E 024°48'117.6
2017-Aug-17 15:30N 37°15' E 024°49'917.6
2017-Aug-17 15:00N 37°20' E 024°58'917.2
2017-Aug-17 14:30N 37°26' E 025°07'816.3
2017-Aug-17 14:00N 37°28' E 025°16'2 4.4
2017-Aug-17 13:30N 37°28' E 025°19'0 0.0
2017-Aug-17 12:53N 37°28' E 025°19'0 0.0
2017-Aug-17 12:29N 37°28' E 025°19'0 0.0
2017-Aug-17 11:53N 37°28' E 025°19'0 0.0
2017-Aug-17 11:29N 37°28' E 025°19'0 0.0
2017-Aug-17 10:53N 37°28' E 025°19'0 0.0
2017-Aug-17 10:29N 37°28' E 025°19'0 0.0
2017-Aug-17 09:56N 37°28' E 025°19'0 0.0
2017-Aug-17 09:29N 37°28' E 025°19'0 0.0
2017-Aug-17 08:59N 37°28' E 025°19'0 0.0
2017-Aug-17 08:26N 37°28' E 025°19'0 0.0
2017-Aug-17 07:59N 37°28' E 025°19'0 0.0
2017-Aug-17 07:29N 37°28' E 025°19'0 0.0
2017-Aug-17 06:53N 37°28' E 025°19'0 0.0
2017-Aug-17 06:29N 37°28' E 025°19'0 0.0
2017-Aug-17 05:56N 37°28' E 025°19'0 0.0
2017-Aug-17 05:29N 37°28' E 025°19'0 0.0
2017-Aug-17 04:59N 37°28' E 025°19'0 0.0
2017-Aug-17 04:29N 37°28' E 025°19'0 0.0
2017-Aug-17 03:59N 37°28' E 025°19'0 0.0
2017-Aug-17 03:30N 37°28' E 025°19'1 2.1
2017-Aug-17 03:01N 37°27' E 025°18'5 9.9
2017-Aug-17 02:30N 37°28' E 025°12'510.1
2017-Aug-17 02:01N 37°24' E 025°08'510.0
2017-Aug-17 01:29N 37°19' E 025°05'5 9.9
2017-Aug-17 01:01N 37°16' E 025°01'510.1
2017-Aug-17 00:30N 37°12' E 024°57'510.0
2017-Aug-17 00:01N 37°07' E 024°55'294 6.8
2017-Aug-15 04:49N 39°55' E 019°48'718.2
2017-Aug-15 04:25N 39°60' E 019°41'818.2
2017-Aug-15 04:00N 40°04' E 019°33'918.5
2017-Aug-15 03:30N 40°10' E 019°23'5818.1
2017-Aug-15 00:18N 41°05' E 018°58'28210.9
2017-Aug-13 22:28N 44°05' E 014°04'1021.3
2017-Aug-13 22:00N 44°13' E 013°55'1821.7
2017-Aug-13 21:10N 44°28' E 013°42'421.6
2017-Aug-13 21:00N 44°31' E 013°39'1121.6
2017-Aug-13 20:30N 44°40' E 013°30'1121.6
2017-Aug-13 20:01N 44°49' E 013°22'1121.5
2017-Aug-13 19:31N 44°57' E 013°13'1121.6
2017-Aug-13 18:59N 45°05' E 013°02'1021.4
2017-Aug-13 18:31N 45°13' E 012°51'1019.6
2017-Aug-13 18:00N 45°19' E 012°40'918.8
2017-Aug-13 17:31N 45°24' E 012°29'5 9.7
2017-Aug-13 17:00N 45°26' E 012°23'3 5.1
2017-Aug-13 16:30N 45°26' E 012°20'1 2.0
2017-Aug-13 16:00N 45°26' E 012°18'0 0.0
2017-Aug-13 15:30N 45°26' E 012°18'0 0.0
2017-Aug-13 14:54N 45°26' E 012°18'0 0.0
2017-Aug-13 14:30N 45°26' E 012°18'0 0.0
2017-Aug-13 14:01N 45°26' E 012°18'0 0.0
2017-Aug-13 13:30N 45°26' E 012°18'0 0.0
2017-Aug-13 12:57N 45°26' E 012°18'0 0.0
2017-Aug-13 12:27N 45°26' E 012°18'0 0.0
2017-Aug-13 12:00N 45°26' E 012°18'0 0.0
2017-Aug-13 11:30N 45°26' E 012°18'0 0.0
2017-Aug-13 11:00N 45°26' E 012°18'0 0.0
2017-Aug-13 10:30N 45°26' E 012°18'0 0.0
2017-Aug-13 10:00N 45°26' E 012°18'0 0.0
2017-Aug-13 09:30N 45°26' E 012°18'0 0.0
2017-Aug-13 09:00N 45°26' E 012°18'0 0.0
2017-Aug-13 08:30N 45°26' E 012°18'0 0.0
2017-Aug-13 08:00N 45°26' E 012°18'0 0.0
2017-Aug-13 07:31N 45°26' E 012°18'0 0.0
2017-Aug-13 07:00N 45°26' E 012°18'0 0.0
2017-Aug-13 06:30N 45°26' E 012°18'0 0.0
2017-Aug-13 06:00N 45°26' E 012°18'0 0.0
2017-Aug-13 05:30N 45°26' E 012°18'0 0.0
2017-Aug-13 05:00N 45°26' E 012°18'0 0.7
2017-Aug-13 04:31N 45°26' E 012°18'3 5.1
2017-Aug-13 04:00N 45°25' E 012°22'3 7.0
2017-Aug-13 03:31N 45°25' E 012°27'917.4
2017-Aug-13 03:00N 45°20' E 012°37'1019.8
2017-Aug-13 02:30N 45°15' E 012°49'1121.9
2017-Aug-13 02:00N 45°07' E 012°60'1121.2
2017-Aug-13 01:30N 45°01' E 013°12'1121.2
2017-Aug-13 01:00N 44°54' E 013°23'1121.6
2017-Aug-13 00:30N 44°45' E 013°32'1121.3
2017-Aug-13 00:00N 44°36' E 013°40'1121.3
2017-Aug-12 23:30N 44°27' E 013°48'1221.5
2017-Aug-12 22:58N 44°18' E 013°58'327 8.3
2017-Aug-11 07:48N 40°16' E 018°56'618.3
2017-Aug-11 07:30N 40°11' E 018°57'1218.4
2017-Aug-11 06:49N 39°59' E 019°02'619.6
2017-Aug-11 06:31N 39°53' E 019°05'918.7
2017-Aug-11 06:00N 39°44' E 019°08'1018.6
2017-Aug-11 05:30N 39°35' E 019°14'918.6
2017-Aug-11 05:00N 39°28' E 019°21'918.6
2017-Aug-11 04:30N 39°20' E 019°27'918.5
2017-Aug-11 04:00N 39°11' E 019°33'918.7
2017-Aug-11 03:31N 39°03' E 019°38'918.6
2017-Aug-11 03:00N 38°55' E 019°43'918.6
2017-Aug-11 02:31N 38°46' E 019°48'918.5
2017-Aug-11 02:01N 38°39' E 019°54'918.7
2017-Aug-11 01:31N 38°30' E 019°60'918.6
2017-Aug-11 01:01N 38°22' E 020°06'918.7
2017-Aug-11 00:30N 38°14' E 020°11'918.8
2017-Aug-11 00:01N 38°06' E 020°17'1019.0
2017-Aug-10 23:30N 37°58' E 020°23'1019.0
2017-Aug-10 23:00N 37°50' E 020°30'918.6
2017-Aug-10 22:31N 37°42' E 020°36'918.5
2017-Aug-10 22:00N 37°36' E 020°45'  
Track history (hours):
 
Tides and Currents Weather Stations Pressure Air Temp Water Temp Dewpoint Dewpoint Depression Visibility Wind Speed Wind Dir Waves Ship Positions

Norwegian Star

Operator: Norwegian Cruise Line

Last reported at 2017-Aug-20 13:28 UTC. Time now 2017-Aug-20 13:40 UTC.
Position N 45°26' E 012°19'.

Type: Ship. MMSI: 311082000.

Date/timePositionNaut miles runAvg speedWind from/ knotsBaromVisibWave heightAir tempDewpointWater temp
2017-Aug-20 13:28N 45°26' E 012°19'0 0.0
2017-Aug-20 12:58N 45°26' E 012°19'0 0.0
2017-Aug-20 12:28N 45°26' E 012°19'0 0.0
2017-Aug-20 11:58N 45°26' E 012°19'0 0.0
2017-Aug-20 11:28N 45°26' E 012°19'0 0.0
2017-Aug-20 10:58N 45°26' E 012°19'0 0.0
2017-Aug-20 10:28N 45°26' E 012°19'0 0.0
2017-Aug-20 09:58N 45°26' E 012°19'0 0.0
2017-Aug-20 09:28N 45°26' E 012°19'0 0.0
2017-Aug-20 08:58N 45°26' E 012°19'0 0.0
2017-Aug-20 08:28N 45°26' E 012°19'0 0.0
2017-Aug-20 07:58N 45°26' E 012°19'0 0.0
2017-Aug-20 07:28N 45°26' E 012°19'0 0.0
2017-Aug-20 06:58N 45°26' E 012°19'0 0.0
2017-Aug-20 06:28N 45°26' E 012°19'0 0.0
2017-Aug-20 05:58N 45°26' E 012°19'0 0.0
2017-Aug-20 05:28N 45°26' E 012°19'0 0.0
2017-Aug-20 05:00N 45°26' E 012°19'0 0.9
2017-Aug-20 04:31N 45°26' E 012°18'3 5.1
2017-Aug-20 04:00N 45°25' E 012°22'3 6.8
2017-Aug-20 03:30N 45°25' E 012°27'816.5
2017-Aug-20 03:01N 45°21' E 012°37'1020.4
2017-Aug-20 02:31N 45°15' E 012°49'1020.7
2017-Aug-20 02:01N 45°08' E 012°59'1020.5
2017-Aug-20 01:30N 45°01' E 013°11'1019.9
2017-Aug-20 01:00N 44°55' E 013°22'1019.3
2017-Aug-20 00:30N 44°47' E 013°29'3619.4
2017-Aug-19 22:40N 44°17' E 013°57'320.2
2017-Aug-19 22:30N 44°14' E 013°59'1020.0
2017-Aug-19 22:00N 44°06' E 014°07'1019.9
2017-Aug-19 21:30N 43°59' E 014°16'1619.9
2017-Aug-19 20:44N 43°47' E 014°30'420.0
2017-Aug-19 20:31N 43°44' E 014°34'1020.2
2017-Aug-19 20:00N 43°36' E 014°43'3320.1
2017-Aug-19 18:21N 43°11' E 015°13'198 9.5
2017-Aug-18 21:29N 41°04' E 018°38'3815.8
2017-Aug-18 19:04N 40°27' E 018°52'316.1
2017-Aug-18 18:54N 40°25' E 018°53'615.8
2017-Aug-18 18:30N 40°19' E 018°55'26315.9
2017-Aug-18 02:00N 36°36' E 021°54'9813.2 340 / 71011.0 5.4 26.0 27.0
2017-Aug-17 18:35N 36°45' E 023°55'2717.2
2017-Aug-17 17:00N 37°00' E 024°24'2416.8 350 / 301009.0 24.0
2017-Aug-17 15:35N 37°14' E 024°48'117.6
2017-Aug-17 15:30N 37°15' E 024°49'917.6
2017-Aug-17 15:00N 37°20' E 024°58'917.2
2017-Aug-17 14:30N 37°26' E 025°07'816.3
2017-Aug-17 14:00N 37°28' E 025°16'2 4.4
2017-Aug-17 13:30N 37°28' E 025°19'0 0.0
2017-Aug-17 12:53N 37°28' E 025°19'0 0.0
2017-Aug-17 12:29N 37°28' E 025°19'0 0.0
2017-Aug-17 11:53N 37°28' E 025°19'0 0.0
2017-Aug-17 11:29N 37°28' E 025°19'0 0.0
2017-Aug-17 10:53N 37°28' E 025°19'0 0.0
2017-Aug-17 10:29N 37°28' E 025°19'0 0.0
2017-Aug-17 09:56N 37°28' E 025°19'0 0.0
2017-Aug-17 09:29N 37°28' E 025°19'0 0.0
2017-Aug-17 08:59N 37°28' E 025°19'0 0.0
2017-Aug-17 08:26N 37°28' E 025°19'0 0.0
2017-Aug-17 07:59N 37°28' E 025°19'0 0.0
2017-Aug-17 07:29N 37°28' E 025°19'0 0.0
2017-Aug-17 06:53N 37°28' E 025°19'0 0.0
2017-Aug-17 06:29N 37°28' E 025°19'0 0.0
2017-Aug-17 05:56N 37°28' E 025°19'0 0.0
2017-Aug-17 05:29N 37°28' E 025°19'0 0.0
2017-Aug-17 04:59N 37°28' E 025°19'0 0.0
2017-Aug-17 04:29N 37°28' E 025°19'0 0.0
2017-Aug-17 03:59N 37°28' E 025°19'0 0.0
2017-Aug-17 03:30N 37°28' E 025°19'1 2.1
2017-Aug-17 03:01N 37°27' E 025°18'5 9.9
2017-Aug-17 02:30N 37°28' E 025°12'510.1
2017-Aug-17 02:01N 37°24' E 025°08'510.0
2017-Aug-17 01:29N 37°19' E 025°05'5 9.9
2017-Aug-17 01:01N 37°16' E 025°01'510.1
2017-Aug-17 00:30N 37°12' E 024°57'510.0
2017-Aug-17 00:01N 37°07' E 024°55'294 6.8
2017-Aug-15 04:49N 39°55' E 019°48'718.2
2017-Aug-15 04:25N 39°60' E 019°41'818.2
2017-Aug-15 04:00N 40°04' E 019°33'918.5
2017-Aug-15 03:30N 40°10' E 019°23'5818.1
2017-Aug-15 00:18N 41°05' E 018°58'28210.9
2017-Aug-13 22:28N 44°05' E 014°04'1021.3
2017-Aug-13 22:00N 44°13' E 013°55'1821.7
2017-Aug-13 21:10N 44°28' E 013°42'421.6
2017-Aug-13 21:00N 44°31' E 013°39'1121.6
2017-Aug-13 20:30N 44°40' E 013°30'1121.6
2017-Aug-13 20:01N 44°49' E 013°22'1121.5
2017-Aug-13 19:31N 44°57' E 013°13'1121.6
2017-Aug-13 18:59N 45°05' E 013°02'1021.4
2017-Aug-13 18:31N 45°13' E 012°51'1019.6
2017-Aug-13 18:00N 45°19' E 012°40'918.8
2017-Aug-13 17:31N 45°24' E 012°29'5 9.7
2017-Aug-13 17:00N 45°26' E 012°23'3 5.1
2017-Aug-13 16:30N 45°26' E 012°20'1 2.0
2017-Aug-13 16:00N 45°26' E 012°18'0 0.0
2017-Aug-13 15:30N 45°26' E 012°18'0 0.0
2017-Aug-13 14:54N 45°26' E 012°18'0 0.0
2017-Aug-13 14:30N 45°26' E 012°18'0 0.0
2017-Aug-13 14:01N 45°26' E 012°18'0 0.0
2017-Aug-13 13:30N 45°26' E 012°18'0 0.0
2017-Aug-13 12:57N 45°26' E 012°18'0 0.0
2017-Aug-13 12:27N 45°26' E 012°18'0 0.0
2017-Aug-13 12:00N 45°26' E 012°18'0 0.0
2017-Aug-13 11:30N 45°26' E 012°18'0 0.0
2017-Aug-13 11:00N 45°26' E 012°18'0 0.0
2017-Aug-13 10:30N 45°26' E 012°18'0 0.0
2017-Aug-13 10:00N 45°26' E 012°18'0 0.0
2017-Aug-13 09:30N 45°26' E 012°18'0 0.0
2017-Aug-13 09:00N 45°26' E 012°18'0 0.0
2017-Aug-13 08:30N 45°26' E 012°18'0 0.0
2017-Aug-13 08:00N 45°26' E 012°18'0 0.0
2017-Aug-13 07:31N 45°26' E 012°18'0 0.0
2017-Aug-13 07:00N 45°26' E 012°18'0 0.0
2017-Aug-13 06:30N 45°26' E 012°18'0 0.0
2017-Aug-13 06:00N 45°26' E 012°18'0 0.0
2017-Aug-13 05:30N 45°26' E 012°18'0 0.0
2017-Aug-13 05:00N 45°26' E 012°18'0 0.7
2017-Aug-13 04:31N 45°26' E 012°18'3 5.1
2017-Aug-13 04:00N 45°25' E 012°22'3 7.0
2017-Aug-13 03:31N 45°25' E 012°27'917.4
2017-Aug-13 03:00N 45°20' E 012°37'1019.8
2017-Aug-13 02:30N 45°15' E 012°49'1121.9
2017-Aug-13 02:00N 45°07' E 012°60'1121.2
2017-Aug-13 01:30N 45°01' E 013°12'1121.2
2017-Aug-13 01:00N 44°54' E 013°23'1121.6
2017-Aug-13 00:30N 44°45' E 013°32'1121.3
2017-Aug-13 00:00N 44°36' E 013°40'1121.3
2017-Aug-12 23:30N 44°27' E 013°48'1221.5
2017-Aug-12 22:58N 44°18' E 013°58'327 8.3
2017-Aug-11 07:48N 40°16' E 018°56'618.3
2017-Aug-11 07:30N 40°11' E 018°57'1218.4
2017-Aug-11 06:49N 39°59' E 019°02'619.6
2017-Aug-11 06:31N 39°53' E 019°05'918.7
2017-Aug-11 06:00N 39°44' E 019°08'1018.6
2017-Aug-11 05:30N 39°35' E 019°14'918.6
2017-Aug-11 05:00N 39°28' E 019°21'918.6
2017-Aug-11 04:30N 39°20' E 019°27'918.5
2017-Aug-11 04:00N 39°11' E 019°33'918.7
2017-Aug-11 03:31N 39°03' E 019°38'918.6
2017-Aug-11 03:00N 38°55' E 019°43'918.6
2017-Aug-11 02:31N 38°46' E 019°48'918.5
2017-Aug-11 02:01N 38°39' E 019°54'918.7
2017-Aug-11 01:31N 38°30' E 019°60'918.6
2017-Aug-11 01:01N 38°22' E 020°06'918.7
2017-Aug-11 00:30N 38°14' E 020°11'918.8
2017-Aug-11 00:01N 38°06' E 020°17'1019.0
2017-Aug-10 23:30N 37°58' E 020°23'1019.0
2017-Aug-10 23:00N 37°50' E 020°30'918.6
2017-Aug-10 22:31N 37°42' E 020°36'918.5
2017-Aug-10 22:00N 37°36' E 020°45'  

Dump ship's entire track history